createdAt,value
2023-01-26T00:04:09.816Z,5.49
2023-01-26T00:09:14.753Z,5.44
2023-01-26T00:14:22.041Z,7.30
2023-01-26T00:19:23.889Z,8.64
2023-01-26T00:24:25.898Z,8.33
2023-01-26T00:29:27.666Z,6.36
2023-01-26T00:34:32.696Z,5.87
2023-01-26T00:39:34.452Z,7.85
2023-01-26T00:44:38.723Z,8.19
2023-01-26T00:49:40.461Z,6.24
2023-01-26T00:54:42.192Z,5.12
2023-01-26T00:59:43.856Z,5.54
2023-01-26T01:04:51.127Z,7.48
2023-01-26T01:09:54.052Z,8.75
2023-01-26T01:14:55.770Z,8.62
2023-01-26T01:19:58.831Z,6.41
2023-01-26T01:25:00.521Z,5.14
2023-01-26T01:30:08.074Z,5.20
2023-01-26T01:35:10.075Z,7.48
2023-01-26T01:40:13.436Z,7.86
2023-01-26T01:45:27.694Z,5.90
2023-01-26T01:50:34.619Z,5.12
2023-01-26T01:55:36.670Z,7.38
2023-01-26T02:00:39.166Z,8.08
2023-01-26T02:05:48.934Z,6.35
2023-01-26T02:10:54.893Z,5.22
2023-01-26T02:15:59.563Z,6.80
2023-01-26T02:21:07.631Z,8.31
2023-01-26T02:26:21.134Z,7.74
2023-01-26T02:31:25.494Z,5.77
2023-01-26T02:36:31.056Z,4.77
2023-01-26T02:41:52.006Z,6.07
2023-01-26T02:46:55.101Z,7.67
2023-01-26T02:51:57.241Z,6.51
2023-01-26T02:56:59.123Z,5.10
2023-01-26T03:02:01.301Z,5.85
2023-01-26T03:07:03.179Z,7.22
2023-01-26T03:12:05.172Z,7.52
2023-01-26T03:17:06.972Z,5.42
2023-01-26T03:22:29.060Z,5.02
2023-01-26T03:27:40.692Z,6.57
2023-01-26T03:32:42.991Z,7.59
2023-01-26T03:37:54.538Z,5.94
2023-01-26T03:43:28.555Z,4.74
2023-01-26T03:48:49.515Z,5.67
2023-01-26T03:54:10.631Z,6.49
2023-01-26T03:59:15.303Z,6.98
2023-01-26T04:04:36.017Z,7.27
2023-01-26T04:09:39.663Z,6.39
2023-01-26T04:15:00.530Z,4.63
2023-01-26T04:20:21.972Z,4.33
2023-01-26T04:25:23.906Z,5.43
2023-01-26T04:30:26.218Z,5.81
2023-01-26T04:35:30.113Z,5.89
2023-01-26T04:40:32.097Z,5.99
2023-01-26T04:45:34.014Z,5.62
2023-01-26T04:50:36.640Z,5.70
2023-01-26T04:55:38.437Z,5.71
2023-01-26T05:00:40.353Z,5.97
2023-01-26T05:05:42.382Z,6.14
2023-01-26T05:10:45.151Z,6.17
2023-01-26T05:15:54.641Z,6.18
2023-01-26T05:21:12.745Z,6.15
2023-01-26T05:26:19.211Z,6.10
2023-01-26T05:31:32.497Z,6.59
2023-01-26T05:36:34.394Z,7.26
2023-01-26T05:41:36.227Z,6.95
2023-01-26T05:46:53.378Z,5.50
2023-01-26T05:51:55.870Z,4.65
2023-01-26T05:56:58.437Z,4.56
2023-01-26T06:02:02.183Z,5.54
2023-01-26T06:07:04.533Z,6.73
2023-01-26T06:12:19.976Z,8.54
2023-01-26T06:17:30.609Z,6.96
2023-01-26T06:22:35.111Z,5.56
2023-01-26T06:27:42.068Z,4.77
2023-01-26T06:32:50.606Z,5.33
2023-01-26T06:37:53.579Z,8.04
2023-01-26T06:42:55.612Z,8.38
2023-01-26T06:47:57.704Z,6.44
2023-01-26T06:53:02.950Z,5.35
2023-01-26T06:58:12.113Z,4.63
2023-01-26T07:03:50.276Z,5.44
2023-01-26T07:08:51.971Z,7.77
2023-01-26T07:13:53.719Z,8.42
2023-01-26T07:18:55.841Z,8.28
2023-01-26T07:23:57.922Z,6.59
2023-01-26T07:28:59.612Z,5.66
2023-01-26T07:34:01.484Z,6.02
2023-01-26T07:39:03.673Z,8.56
2023-01-26T07:44:09.921Z,8.93
2023-01-26T07:49:12.786Z,7.17
2023-01-26T07:54:14.657Z,6.18
2023-01-26T07:59:16.312Z,5.73
2023-01-26T08:04:18.605Z,7.45
2023-01-26T08:09:20.353Z,9.06
2023-01-26T08:14:22.137Z,8.08
2023-01-26T08:19:23.822Z,6.83
2023-01-26T08:24:26.874Z,6.23
2023-01-26T08:29:28.646Z,5.86
2023-01-26T08:34:30.372Z,6.72
2023-01-26T08:39:32.066Z,9.22
2023-01-26T08:44:33.784Z,9.86
2023-01-26T08:49:35.532Z,8.16
2023-01-26T08:54:37.261Z,7.23
2023-01-26T08:59:39.085Z,6.65
2023-01-26T09:04:40.794Z,6.19
2023-01-26T09:09:42.511Z,6.82
2023-01-26T09:14:44.255Z,9.32
2023-01-26T09:19:45.906Z,9.73
2023-01-26T09:24:47.606Z,8.24
2023-01-26T09:29:49.435Z,7.37
2023-01-26T09:34:51.323Z,6.92
2023-01-26T09:39:53.007Z,8.43
2023-01-26T09:45:06.900Z,9.36
2023-01-26T09:50:18.065Z,7.72
2023-01-26T09:55:22.156Z,6.94
2023-01-26T10:00:45.460Z,7.15
2023-01-26T10:06:14.580Z,9.04
2023-01-26T10:11:44.944Z,9.25
2023-01-26T10:16:53.155Z,7.97
2023-01-26T10:21:59.400Z,7.18
2023-01-26T10:27:01.191Z,6.67
2023-01-26T10:32:03.726Z,6.22
2023-01-26T10:37:30.732Z,5.74
2023-01-26T10:42:35.002Z,6.26
2023-01-26T10:47:37.446Z,8.63
2023-01-26T10:52:56.239Z,8.96
2023-01-26T10:57:58.477Z,6.92
2023-01-26T11:03:06.151Z,5.85
2023-01-26T11:08:33.755Z,6.17
2023-01-26T11:13:35.476Z,8.53
2023-01-26T11:18:56.044Z,8.75
2023-01-26T11:24:02.734Z,7.05
2023-01-26T11:29:17.537Z,6.23
2023-01-26T11:34:43.925Z,6.22
2023-01-26T11:40:04.919Z,7.36
2023-01-26T11:45:26.157Z,8.21
2023-01-26T11:50:30.943Z,8.06
2023-01-26T11:56:07.841Z,6.94
2023-01-26T12:01:55.854Z,6.45
2023-01-26T12:07:06.840Z,6.97
2023-01-26T12:12:32.489Z,8.70
2023-01-26T12:17:40.573Z,8.86
2023-01-26T12:22:49.555Z,7.50
2023-01-26T12:28:16.919Z,6.68
2023-01-26T12:33:19.490Z,6.10
2023-01-26T12:38:43.075Z,6.21
2023-01-26T12:44:10.085Z,7.28
2023-01-26T12:49:20.937Z,7.78
2023-01-26T12:54:40.930Z,7.52
2023-01-26T12:59:46.986Z,6.31
2023-01-26T13:04:51.033Z,5.86
2023-01-26T13:10:10.076Z,7.30
2023-01-26T13:15:14.973Z,7.94
2023-01-26T13:20:43.305Z,6.97
2023-01-26T13:26:10.043Z,6.08
2023-01-26T13:31:13.350Z,5.36
2023-01-26T13:36:19.073Z,5.54
2023-01-26T13:41:21.444Z,6.61
2023-01-26T13:46:45.160Z,7.25
2023-01-26T13:51:49.949Z,7.59
2023-01-26T13:57:06.564Z,7.86
2023-01-26T14:02:22.833Z,7.58
2023-01-26T14:07:40.900Z,6.64
2023-01-26T14:12:47.166Z,6.54
2023-01-26T14:17:52.570Z,6.83
2023-01-26T14:23:10.317Z,6.86
2023-01-26T14:28:17.177Z,7.08
2023-01-26T14:33:18.946Z,7.62
2023-01-26T14:38:21.150Z,6.41
2023-01-26T14:43:24.373Z,5.54
2023-01-26T14:48:34.879Z,5.99
2023-01-26T14:53:37.471Z,6.45
2023-01-26T14:58:39.484Z,6.68
2023-01-26T15:03:41.357Z,6.80
2023-01-26T15:08:53.842Z,6.56
2023-01-26T15:13:56.390Z,6.38
2023-01-26T15:19:07.942Z,6.26
2023-01-26T15:24:14.886Z,6.03
2023-01-26T15:29:31.070Z,5.75
2023-01-26T15:34:42.253Z,5.45
2023-01-26T15:39:44.025Z,5.45
2023-01-26T15:44:45.715Z,5.58
2023-01-26T15:49:47.337Z,5.89
2023-01-26T15:54:50.864Z,5.55
2023-01-26T15:59:52.595Z,5.24
2023-01-26T16:04:54.376Z,5.23
2023-01-26T16:09:55.993Z,5.20
2023-01-26T16:14:58.075Z,5.12
2023-01-26T16:20:00.349Z,5.20
2023-01-26T16:25:02.018Z,5.68
2023-01-26T16:30:03.767Z,6.54
2023-01-26T16:35:14.661Z,6.27
2023-01-26T16:40:20.882Z,5.16
2023-01-26T16:45:28.943Z,5.76
2023-01-26T16:50:31.746Z,6.13
2023-01-26T16:55:33.542Z,6.52
2023-01-26T17:00:35.171Z,6.62
2023-01-26T17:05:36.916Z,5.78
2023-01-26T17:10:48.932Z,5.20
2023-01-26T17:16:00.853Z,5.81
2023-01-26T17:21:03.527Z,6.40
2023-01-26T17:26:05.226Z,6.54
2023-01-26T17:31:10.847Z,6.94
2023-01-26T17:36:14.027Z,5.62
2023-01-26T17:41:16.660Z,6.60
2023-01-26T17:46:20.708Z,7.12
2023-01-26T17:51:23.243Z,5.58
2023-01-26T17:56:25.204Z,5.30
2023-01-26T18:01:27.037Z,6.85
2023-01-26T18:06:29.740Z,6.43
2023-01-26T18:11:31.738Z,5.54
2023-01-26T18:16:33.946Z,6.45
2023-01-26T18:21:36.979Z,6.29
2023-01-26T18:26:39.234Z,6.52
2023-01-26T18:31:41.092Z,5.46
2023-01-26T18:36:42.849Z,5.60
2023-01-26T18:41:44.675Z,6.35
2023-01-26T18:46:46.366Z,7.34
2023-01-26T18:51:48.329Z,7.73
2023-01-26T18:56:50.060Z,5.79
2023-01-26T19:01:51.801Z,4.65
2023-01-26T19:06:53.489Z,5.81
2023-01-26T19:11:55.496Z,8.31
2023-01-26T19:16:57.283Z,8.83
2023-01-26T19:21:59.176Z,6.51
2023-01-26T19:27:01.585Z,6.15
2023-01-26T19:32:03.515Z,7.93
2023-01-26T19:37:05.271Z,7.09
2023-01-26T19:42:07.027Z,5.33
2023-01-26T19:47:08.631Z,4.38
2023-01-26T19:52:10.343Z,5.12
2023-01-26T19:57:12.141Z,6.17
2023-01-26T20:02:13.867Z,6.70
2023-01-26T20:07:15.796Z,6.59
2023-01-26T20:12:20.397Z,5.09
2023-01-26T20:17:22.293Z,4.03
2023-01-26T20:22:24.400Z,4.14
2023-01-26T20:27:26.499Z,5.77
2023-01-26T20:32:28.722Z,6.86
2023-01-26T20:37:30.657Z,7.11
2023-01-26T20:42:33.315Z,5.41
2023-01-26T20:47:38.334Z,4.38
2023-01-26T20:52:42.787Z,4.10
2023-01-26T20:57:45.453Z,6.08
2023-01-26T21:02:47.303Z,6.24
2023-01-26T21:07:49.239Z,4.39
2023-01-26T21:12:51.506Z,3.77
2023-01-26T21:17:56.336Z,4.98
2023-01-26T21:22:59.905Z,5.35
2023-01-26T21:28:01.988Z,5.19
2023-01-26T21:33:03.859Z,5.26
2023-01-26T21:38:06.465Z,5.11
2023-01-26T21:43:08.232Z,5.26
2023-01-26T21:48:28.012Z,5.26
2023-01-26T21:53:29.835Z,5.40
2023-01-26T21:58:50.391Z,5.61
2023-01-26T22:03:57.379Z,5.83
2023-01-26T22:08:59.522Z,5.67
2023-01-26T22:14:12.644Z,5.37
2023-01-26T22:19:14.822Z,5.10
2023-01-26T22:24:17.934Z,5.00
2023-01-26T22:29:20.201Z,5.15
2023-01-26T22:34:22.624Z,5.42
2023-01-26T22:39:24.293Z,5.50
2023-01-26T22:44:28.898Z,5.32
2023-01-26T22:49:30.702Z,5.21
2023-01-26T22:54:32.493Z,5.18
2023-01-26T22:59:34.198Z,5.19
2023-01-26T23:04:35.839Z,5.26
2023-01-26T23:09:37.548Z,5.31
2023-01-26T23:14:39.239Z,5.14
2023-01-26T23:19:40.851Z,4.92
2023-01-26T23:25:02.584Z,4.94
2023-01-26T23:30:04.650Z,5.17
2023-01-26T23:35:06.567Z,5.07
2023-01-26T23:40:09.279Z,5.15
2023-01-26T23:45:11.166Z,5.05
2023-01-26T23:50:13.085Z,4.82
2023-01-26T23:55:15.154Z,4.78
